sensor_id;sensor_type;location;lat;lon;timestamp;P1;durP1;ratioP1;P2;durP2;ratioP2
27113;SDS011;14648;49.730;8.614;2023-09-19T00:01:32;0.90;;;0.63;;
27113;SDS011;14648;49.730;8.614;2023-09-19T00:03:58;1.00;;;0.80;;
27113;SDS011;14648;49.730;8.614;2023-09-19T00:06:25;2.50;;;0.80;;
27113;SDS011;14648;49.730;8.614;2023-09-19T00:08:56;1.23;;;0.73;;
27113;SDS011;14648;49.730;8.614;2023-09-19T00:11:25;0.80;;;0.80;;
27113;SDS011;14648;49.730;8.614;2023-09-19T00:13:52;1.07;;;0.80;;
27113;SDS011;14648;49.730;8.614;2023-09-19T00:16:18;0.93;;;0.93;;
27113;SDS011;14648;49.730;8.614;2023-09-19T00:18:47;0.60;;;0.57;;
27113;SDS011;14648;49.730;8.614;2023-09-19T00:21:14;0.60;;;0.60;;
27113;SDS011;14648;49.730;8.614;2023-09-19T00:23:40;1.13;;;0.80;;
27113;SDS011;14648;49.730;8.614;2023-09-19T00:26:06;0.70;;;0.50;;
27113;SDS011;14648;49.730;8.614;2023-09-19T00:28:32;0.70;;;0.50;;
27113;SDS011;14648;49.730;8.614;2023-09-19T00:30:58;0.60;;;0.60;;
27113;SDS011;14648;49.730;8.614;2023-09-19T00:33:26;0.80;;;0.60;;
27113;SDS011;14648;49.730;8.614;2023-09-19T00:35:54;0.70;;;0.60;;
27113;SDS011;14648;49.730;8.614;2023-09-19T00:38:22;1.10;;;0.60;;
27113;SDS011;14648;49.730;8.614;2023-09-19T00:40:52;1.00;;;0.67;;
27113;SDS011;14648;49.730;8.614;2023-09-19T00:43:22;0.60;;;0.60;;
27113;SDS011;14648;49.730;8.614;2023-09-19T00:45:49;1.37;;;0.70;;
27113;SDS011;14648;49.730;8.614;2023-09-19T00:48:18;0.63;;;0.60;;
27113;SDS011;14648;49.730;8.614;2023-09-19T00:50:46;0.80;;;0.73;;
27113;SDS011;14648;49.730;8.614;2023-09-19T00:53:17;0.90;;;0.50;;
27113;SDS011;14648;49.730;8.614;2023-09-19T00:55:46;0.70;;;0.53;;
27113;SDS011;14648;49.730;8.614;2023-09-19T00:58:13;1.47;;;0.60;;
27113;SDS011;14648;49.730;8.614;2023-09-19T01:00:39;2.20;;;0.70;;
27113;SDS011;14648;49.730;8.614;2023-09-19T01:03:05;1.10;;;0.90;;
27113;SDS011;14648;49.730;8.614;2023-09-19T01:05:31;1.10;;;0.60;;
27113;SDS011;14648;49.730;8.614;2023-09-19T01:07:59;1.37;;;0.97;;
27113;SDS011;14648;49.730;8.614;2023-09-19T01:10:25;0.70;;;0.50;;
27113;SDS011;14648;49.730;8.614;2023-09-19T01:16:11;0.80;;;0.80;;
27113;SDS011;14648;49.730;8.614;2023-09-19T01:21:44;0.60;;;0.50;;
27113;SDS011;14648;49.730;8.614;2023-09-19T01:30:32;0.73;;;0.73;;
27113;SDS011;14648;49.730;8.614;2023-09-19T01:33:01;2.10;;;0.93;;
27113;SDS011;14648;49.730;8.614;2023-09-19T01:35:29;1.53;;;0.80;;
27113;SDS011;14648;49.730;8.614;2023-09-19T01:37:55;0.90;;;0.70;;
27113;SDS011;14648;49.730;8.614;2023-09-19T01:40:20;2.60;;;0.80;;
27113;SDS011;14648;49.730;8.614;2023-09-19T01:48:47;2.20;;;0.83;;
27113;SDS011;14648;49.730;8.614;2023-09-19T01:51:45;1.43;;;0.90;;
27113;SDS011;14648;49.730;8.614;2023-09-19T01:54:32;2.10;;;0.70;;
27113;SDS011;14648;49.730;8.614;2023-09-19T01:57:17;1.27;;;1.13;;
27113;SDS011;14648;49.730;8.614;2023-09-19T02:00:16;0.87;;;0.70;;
27113;SDS011;14648;49.730;8.614;2023-09-19T02:02:42;0.87;;;0.67;;
27113;SDS011;14648;49.730;8.614;2023-09-19T02:05:10;0.60;;;0.60;;
27113;SDS011;14648;49.730;8.614;2023-09-19T02:07:37;1.47;;;1.37;;
27113;SDS011;14648;49.730;8.614;2023-09-19T02:10:04;0.70;;;0.70;;
27113;SDS011;14648;49.730;8.614;2023-09-19T02:12:32;3.03;;;1.10;;
27113;SDS011;14648;49.730;8.614;2023-09-19T02:14:58;1.07;;;0.60;;
27113;SDS011;14648;49.730;8.614;2023-09-19T02:17:27;1.30;;;0.70;;
27113;SDS011;14648;49.730;8.614;2023-09-19T02:19:53;0.63;;;0.63;;
27113;SDS011;14648;49.730;8.614;2023-09-19T02:22:20;0.80;;;0.80;;
27113;SDS011;14648;49.730;8.614;2023-09-19T02:24:49;0.70;;;0.70;;
27113;SDS011;14648;49.730;8.614;2023-09-19T02:27:16;4.50;;;0.73;;
27113;SDS011;14648;49.730;8.614;2023-09-19T02:29:45;2.00;;;0.70;;
27113;SDS011;14648;49.730;8.614;2023-09-19T02:32:10;3.57;;;1.13;;
27113;SDS011;14648;49.730;8.614;2023-09-19T02:34:36;0.93;;;0.80;;
27113;SDS011;14648;49.730;8.614;2023-09-19T02:37:04;0.60;;;0.50;;
27113;SDS011;14648;49.730;8.614;2023-09-19T02:39:33;0.90;;;0.90;;
27113;SDS011;14648;49.730;8.614;2023-09-19T02:42:00;1.23;;;0.60;;
27113;SDS011;14648;49.730;8.614;2023-09-19T02:44:25;1.07;;;0.80;;
27113;SDS011;14648;49.730;8.614;2023-09-19T02:46:52;0.90;;;0.70;;
27113;SDS011;14648;49.730;8.614;2023-09-19T02:49:18;1.00;;;0.70;;
27113;SDS011;14648;49.730;8.614;2023-09-19T02:51:44;3.17;;;0.70;;
27113;SDS011;14648;49.730;8.614;2023-09-19T02:54:10;1.00;;;0.83;;
27113;SDS011;14648;49.730;8.614;2023-09-19T02:56:36;1.30;;;0.97;;
27113;SDS011;14648;49.730;8.614;2023-09-19T02:59:03;1.17;;;0.80;;
27113;SDS011;14648;49.730;8.614;2023-09-19T03:01:29;0.70;;;0.70;;
27113;SDS011;14648;49.730;8.614;2023-09-19T03:03:54;2.30;;;1.00;;
27113;SDS011;14648;49.730;8.614;2023-09-19T03:06:20;1.10;;;0.90;;
27113;SDS011;14648;49.730;8.614;2023-09-19T03:08:47;1.03;;;0.83;;
27113;SDS011;14648;49.730;8.614;2023-09-19T03:11:14;3.10;;;1.17;;
27113;SDS011;14648;49.730;8.614;2023-09-19T03:13:43;1.20;;;1.00;;
27113;SDS011;14648;49.730;8.614;2023-09-19T03:16:10;1.67;;;0.70;;
27113;SDS011;14648;49.730;8.614;2023-09-19T03:18:36;0.90;;;0.80;;
27113;SDS011;14648;49.730;8.614;2023-09-19T03:21:02;7.93;;;1.33;;
27113;SDS011;14648;49.730;8.614;2023-09-19T03:23:29;0.70;;;0.70;;
27113;SDS011;14648;49.730;8.614;2023-09-19T03:25:55;1.20;;;0.97;;
27113;SDS011;14648;49.730;8.614;2023-09-19T03:28:21;1.03;;;0.70;;
27113;SDS011;14648;49.730;8.614;2023-09-19T03:30:58;2.47;;;0.77;;
27113;SDS011;14648;49.730;8.614;2023-09-19T03:33:31;3.40;;;1.07;;
27113;SDS011;14648;49.730;8.614;2023-09-19T03:35:58;1.53;;;0.83;;
27113;SDS011;14648;49.730;8.614;2023-09-19T03:38:26;0.90;;;0.90;;
27113;SDS011;14648;49.730;8.614;2023-09-19T03:40:53;0.80;;;0.80;;
27113;SDS011;14648;49.730;8.614;2023-09-19T03:43:19;0.80;;;0.70;;
27113;SDS011;14648;49.730;8.614;2023-09-19T03:45:45;1.87;;;1.03;;
27113;SDS011;14648;49.730;8.614;2023-09-19T03:48:11;3.13;;;0.90;;
27113;SDS011;14648;49.730;8.614;2023-09-19T03:50:38;2.20;;;1.43;;
27113;SDS011;14648;49.730;8.614;2023-09-19T03:53:04;0.83;;;0.83;;
27113;SDS011;14648;49.730;8.614;2023-09-19T03:55:32;2.03;;;1.07;;
27113;SDS011;14648;49.730;8.614;2023-09-19T03:58:00;3.33;;;1.10;;
27113;SDS011;14648;49.730;8.614;2023-09-19T04:00:27;2.13;;;1.13;;
27113;SDS011;14648;49.730;8.614;2023-09-19T04:02:54;1.97;;;1.20;;
27113;SDS011;14648;49.730;8.614;2023-09-19T04:05:23;1.50;;;1.23;;
27113;SDS011;14648;49.730;8.614;2023-09-19T04:07:49;1.27;;;1.17;;
27113;SDS011;14648;49.730;8.614;2023-09-19T04:10:18;3.80;;;1.30;;
27113;SDS011;14648;49.730;8.614;2023-09-19T04:12:51;1.00;;;0.80;;
27113;SDS011;14648;49.730;8.614;2023-09-19T04:15:18;2.73;;;1.27;;
27113;SDS011;14648;49.730;8.614;2023-09-19T04:17:44;1.17;;;0.97;;
27113;SDS011;14648;49.730;8.614;2023-09-19T04:20:10;1.73;;;1.40;;
27113;SDS011;14648;49.730;8.614;2023-09-19T04:22:37;1.17;;;1.07;;
27113;SDS011;14648;49.730;8.614;2023-09-19T04:25:04;1.03;;;0.93;;
27113;SDS011;14648;49.730;8.614;2023-09-19T04:27:32;3.03;;;1.23;;
27113;SDS011;14648;49.730;8.614;2023-09-19T04:29:58;4.93;;;1.63;;
27113;SDS011;14648;49.730;8.614;2023-09-19T04:32:24;1.50;;;1.40;;
27113;SDS011;14648;49.730;8.614;2023-09-19T04:34:53;2.57;;;1.70;;
27113;SDS011;14648;49.730;8.614;2023-09-19T04:37:19;1.53;;;1.43;;
27113;SDS011;14648;49.730;8.614;2023-09-19T04:39:46;1.17;;;1.07;;
27113;SDS011;14648;49.730;8.614;2023-09-19T04:42:12;1.17;;;1.07;;
27113;SDS011;14648;49.730;8.614;2023-09-19T04:44:39;2.73;;;1.10;;
27113;SDS011;14648;49.730;8.614;2023-09-19T04:47:05;1.10;;;1.00;;
27113;SDS011;14648;49.730;8.614;2023-09-19T04:49:31;1.20;;;1.10;;
27113;SDS011;14648;49.730;8.614;2023-09-19T04:51:57;1.13;;;1.13;;
27113;SDS011;14648;49.730;8.614;2023-09-19T04:54:22;4.63;;;1.30;;
27113;SDS011;14648;49.730;8.614;2023-09-19T04:56:48;1.60;;;1.23;;
27113;SDS011;14648;49.730;8.614;2023-09-19T04:59:14;2.57;;;1.70;;
27113;SDS011;14648;49.730;8.614;2023-09-19T05:01:40;1.67;;;1.57;;
27113;SDS011;14648;49.730;8.614;2023-09-19T05:04:06;2.40;;;1.70;;
27113;SDS011;14648;49.730;8.614;2023-09-19T05:06:32;1.33;;;1.20;;
27113;SDS011;14648;49.730;8.614;2023-09-19T05:08:58;4.00;;;1.70;;
27113;SDS011;14648;49.730;8.614;2023-09-19T05:11:25;1.57;;;1.47;;
27113;SDS011;14648;49.730;8.614;2023-09-19T05:13:51;3.00;;;1.47;;
27113;SDS011;14648;49.730;8.614;2023-09-19T05:16:17;1.47;;;1.37;;
27113;SDS011;14648;49.730;8.614;2023-09-19T05:18:43;2.07;;;1.30;;
27113;SDS011;14648;49.730;8.614;2023-09-19T05:21:09;2.00;;;1.37;;
27113;SDS011;14648;49.730;8.614;2023-09-19T05:23:35;2.83;;;1.53;;
27113;SDS011;14648;49.730;8.614;2023-09-19T05:26:01;1.60;;;1.50;;
27113;SDS011;14648;49.730;8.614;2023-09-19T05:28:28;2.27;;;1.50;;
27113;SDS011;14648;49.730;8.614;2023-09-19T05:30:54;2.20;;;1.30;;
27113;SDS011;14648;49.730;8.614;2023-09-19T05:33:20;2.20;;;2.00;;
27113;SDS011;14648;49.730;8.614;2023-09-19T05:35:49;1.43;;;1.10;;
27113;SDS011;14648;49.730;8.614;2023-09-19T05:38:15;1.47;;;1.40;;
27113;SDS011;14648;49.730;8.614;2023-09-19T05:40:44;3.43;;;1.50;;
27113;SDS011;14648;49.730;8.614;2023-09-19T05:43:10;1.50;;;1.40;;
27113;SDS011;14648;49.730;8.614;2023-09-19T05:45:36;1.80;;;1.30;;
27113;SDS011;14648;49.730;8.614;2023-09-19T05:48:12;3.33;;;1.57;;
27113;SDS011;14648;49.730;8.614;2023-09-19T05:50:40;5.27;;;1.60;;
27113;SDS011;14648;49.730;8.614;2023-09-19T05:53:07;1.70;;;1.60;;
27113;SDS011;14648;49.730;8.614;2023-09-19T05:55:35;8.70;;;1.47;;
27113;SDS011;14648;49.730;8.614;2023-09-19T05:58:00;3.27;;;1.70;;
27113;SDS011;14648;49.730;8.614;2023-09-19T06:00:28;11.70;;;2.13;;
27113;SDS011;14648;49.730;8.614;2023-09-19T06:02:55;1.60;;;1.50;;
27113;SDS011;14648;49.730;8.614;2023-09-19T06:05:25;1.07;;;1.07;;
27113;SDS011;14648;49.730;8.614;2023-09-19T06:07:52;2.67;;;1.70;;
27113;SDS011;14648;49.730;8.614;2023-09-19T06:10:18;1.37;;;1.27;;
27113;SDS011;14648;49.730;8.614;2023-09-19T06:12:46;1.57;;;1.47;;
27113;SDS011;14648;49.730;8.614;2023-09-19T06:15:15;1.50;;;1.40;;
27113;SDS011;14648;49.730;8.614;2023-09-19T06:17:47;1.40;;;1.30;;
27113;SDS011;14648;49.730;8.614;2023-09-19T06:20:21;1.13;;;1.03;;
27113;SDS011;14648;49.730;8.614;2023-09-19T06:22:50;1.67;;;1.57;;
27113;SDS011;14648;49.730;8.614;2023-09-19T06:25:16;1.20;;;1.10;;
27113;SDS011;14648;49.730;8.614;2023-09-19T06:27:47;2.30;;;1.50;;
27113;SDS011;14648;49.730;8.614;2023-09-19T06:30:17;3.47;;;1.33;;
27113;SDS011;14648;49.730;8.614;2023-09-19T06:32:43;3.10;;;1.87;;
27113;SDS011;14648;49.730;8.614;2023-09-19T06:35:13;2.20;;;2.00;;
27113;SDS011;14648;49.730;8.614;2023-09-19T06:37:40;1.30;;;1.20;;
27113;SDS011;14648;49.730;8.614;2023-09-19T06:42:43;3.53;;;1.70;;
27113;SDS011;14648;49.730;8.614;2023-09-19T06:45:11;2.00;;;1.53;;
27113;SDS011;14648;49.730;8.614;2023-09-19T06:47:47;1.23;;;1.13;;
27113;SDS011;14648;49.730;8.614;2023-09-19T06:50:17;1.20;;;1.03;;
27113;SDS011;14648;49.730;8.614;2023-09-19T06:52:45;6.53;;;1.67;;
27113;SDS011;14648;49.730;8.614;2023-09-19T06:55:15;2.57;;;1.40;;
27113;SDS011;14648;49.730;8.614;2023-09-19T06:57:44;2.00;;;1.13;;
27113;SDS011;14648;49.730;8.614;2023-09-19T07:00:10;1.83;;;1.20;;
27113;SDS011;14648;49.730;8.614;2023-09-19T07:02:54;3.23;;;1.50;;
27113;SDS011;14648;49.730;8.614;2023-09-19T07:05:30;1.90;;;1.23;;
27113;SDS011;14648;49.730;8.614;2023-09-19T07:07:57;1.77;;;1.00;;
27113;SDS011;14648;49.730;8.614;2023-09-19T07:10:24;0.97;;;0.90;;
27113;SDS011;14648;49.730;8.614;2023-09-19T07:12:59;1.40;;;1.07;;
27113;SDS011;14648;49.730;8.614;2023-09-19T07:15:26;1.10;;;0.93;;
27113;SDS011;14648;49.730;8.614;2023-09-19T07:17:53;2.23;;;1.13;;
27113;SDS011;14648;49.730;8.614;2023-09-19T07:20:21;1.53;;;1.20;;
27113;SDS011;14648;49.730;8.614;2023-09-19T07:22:51;0.80;;;0.80;;
27113;SDS011;14648;49.730;8.614;2023-09-19T07:25:17;2.70;;;1.13;;
27113;SDS011;14648;49.730;8.614;2023-09-19T07:27:43;5.30;;;1.33;;
27113;SDS011;14648;49.730;8.614;2023-09-19T07:30:10;1.37;;;0.80;;
27113;SDS011;14648;49.730;8.614;2023-09-19T07:32:36;8.43;;;1.70;;
27113;SDS011;14648;49.730;8.614;2023-09-19T07:35:03;2.60;;;1.00;;
27113;SDS011;14648;49.730;8.614;2023-09-19T07:37:33;0.90;;;0.90;;
27113;SDS011;14648;49.730;8.614;2023-09-19T07:39:59;1.63;;;1.40;;
27113;SDS011;14648;49.730;8.614;2023-09-19T07:42:33;1.80;;;1.00;;
27113;SDS011;14648;49.730;8.614;2023-09-19T07:45:00;1.57;;;1.10;;
27113;SDS011;14648;49.730;8.614;2023-09-19T07:47:26;2.10;;;1.10;;
27113;SDS011;14648;49.730;8.614;2023-09-19T07:49:55;2.30;;;1.17;;
27113;SDS011;14648;49.730;8.614;2023-09-19T07:52:21;1.90;;;1.50;;
27113;SDS011;14648;49.730;8.614;2023-09-19T07:54:47;0.80;;;0.80;;
27113;SDS011;14648;49.730;8.614;2023-09-19T07:57:17;1.80;;;1.37;;
27113;SDS011;14648;49.730;8.614;2023-09-19T07:59:42;6.97;;;1.50;;
27113;SDS011;14648;49.730;8.614;2023-09-19T08:02:08;0.93;;;0.90;;
27113;SDS011;14648;49.730;8.614;2023-09-19T08:04:40;0.70;;;0.70;;
27113;SDS011;14648;49.730;8.614;2023-09-19T08:07:14;4.03;;;1.00;;
27113;SDS011;14648;49.730;8.614;2023-09-19T08:09:40;2.80;;;0.80;;
27113;SDS011;14648;49.730;8.614;2023-09-19T08:12:06;9.67;;;0.80;;
27113;SDS011;14648;49.730;8.614;2023-09-19T08:14:35;3.53;;;1.10;;
27113;SDS011;14648;49.730;8.614;2023-09-19T08:17:02;5.80;;;1.60;;
27113;SDS011;14648;49.730;8.614;2023-09-19T08:19:30;2.13;;;1.13;;
27113;SDS011;14648;49.730;8.614;2023-09-19T08:21:57;1.00;;;0.80;;
27113;SDS011;14648;49.730;8.614;2023-09-19T08:24:24;4.07;;;1.00;;
27113;SDS011;14648;49.730;8.614;2023-09-19T08:26:53;1.73;;;0.70;;
27113;SDS011;14648;49.730;8.614;2023-09-19T08:29:20;1.10;;;0.90;;
27113;SDS011;14648;49.730;8.614;2023-09-19T08:31:53;1.97;;;0.90;;
27113;SDS011;14648;49.730;8.614;2023-09-19T08:34:20;6.43;;;0.83;;
27113;SDS011;14648;49.730;8.614;2023-09-19T08:36:48;1.30;;;0.97;;
27113;SDS011;14648;49.730;8.614;2023-09-19T08:39:16;0.70;;;0.70;;
27113;SDS011;14648;49.730;8.614;2023-09-19T08:41:43;1.90;;;0.80;;
27113;SDS011;14648;49.730;8.614;2023-09-19T08:44:09;0.77;;;0.77;;
27113;SDS011;14648;49.730;8.614;2023-09-19T08:46:35;3.90;;;1.03;;
27113;SDS011;14648;49.730;8.614;2023-09-19T08:52:25;2.30;;;0.80;;
27113;SDS011;14648;49.730;8.614;2023-09-19T08:54:55;0.80;;;0.80;;
27113;SDS011;14648;49.730;8.614;2023-09-19T08:57:29;1.93;;;0.90;;
27113;SDS011;14648;49.730;8.614;2023-09-19T09:00:01;1.73;;;0.73;;
27113;SDS011;14648;49.730;8.614;2023-09-19T09:02:35;2.00;;;1.00;;
27113;SDS011;14648;49.730;8.614;2023-09-19T09:05:07;1.47;;;1.07;;
27113;SDS011;14648;49.730;8.614;2023-09-19T09:07:35;1.20;;;0.80;;
27113;SDS011;14648;49.730;8.614;2023-09-19T09:10:04;1.03;;;0.90;;
27113;SDS011;14648;49.730;8.614;2023-09-19T09:12:31;2.83;;;1.13;;
27113;SDS011;14648;49.730;8.614;2023-09-19T09:15:01;4.47;;;1.10;;
27113;SDS011;14648;49.730;8.614;2023-09-19T09:17:28;1.07;;;0.97;;
27113;SDS011;14648;49.730;8.614;2023-09-19T09:19:55;3.13;;;1.00;;
27113;SDS011;14648;49.730;8.614;2023-09-19T09:22:22;4.40;;;1.00;;
27113;SDS011;14648;49.730;8.614;2023-09-19T09:24:55;4.80;;;0.80;;
27113;SDS011;14648;49.730;8.614;2023-09-19T09:27:31;2.60;;;1.23;;
27113;SDS011;14648;49.730;8.614;2023-09-19T09:29:59;8.10;;;0.93;;
27113;SDS011;14648;49.730;8.614;2023-09-19T09:32:29;0.83;;;0.83;;
27113;SDS011;14648;49.730;8.614;2023-09-19T09:34:59;1.23;;;0.80;;
27113;SDS011;14648;49.730;8.614;2023-09-19T09:37:26;1.40;;;0.90;;
27113;SDS011;14648;49.730;8.614;2023-09-19T09:40:02;2.60;;;0.90;;
27113;SDS011;14648;49.730;8.614;2023-09-19T09:42:44;0.80;;;0.70;;
27113;SDS011;14648;49.730;8.614;2023-09-19T09:45:23;2.83;;;1.10;;
27113;SDS011;14648;49.730;8.614;2023-09-19T09:47:58;4.03;;;0.90;;
27113;SDS011;14648;49.730;8.614;2023-09-19T09:50:30;1.00;;;0.70;;
27113;SDS011;14648;49.730;8.614;2023-09-19T09:56:05;2.50;;;0.90;;
27113;SDS011;14648;49.730;8.614;2023-09-19T09:58:37;1.20;;;0.67;;
27113;SDS011;14648;49.730;8.614;2023-09-19T10:01:17;1.53;;;0.93;;
27113;SDS011;14648;49.730;8.614;2023-09-19T10:03:43;4.73;;;0.90;;
27113;SDS011;14648;49.730;8.614;2023-09-19T10:06:15;1.23;;;1.13;;
27113;SDS011;14648;49.730;8.614;2023-09-19T10:08:58;2.80;;;1.47;;
27113;SDS011;14648;49.730;8.614;2023-09-19T10:11:47;0.70;;;0.70;;
27113;SDS011;14648;49.730;8.614;2023-09-19T10:14:23;2.60;;;0.90;;
27113;SDS011;14648;49.730;8.614;2023-09-19T10:16:56;3.53;;;0.80;;
27113;SDS011;14648;49.730;8.614;2023-09-19T10:19:41;1.10;;;0.90;;
27113;SDS011;14648;49.730;8.614;2023-09-19T10:22:22;9.30;;;0.83;;
27113;SDS011;14648;49.730;8.614;2023-09-19T10:24:50;3.13;;;0.97;;
27113;SDS011;14648;49.730;8.614;2023-09-19T10:27:19;2.70;;;1.20;;
27113;SDS011;14648;49.730;8.614;2023-09-19T10:29:48;4.20;;;1.00;;
27113;SDS011;14648;49.730;8.614;2023-09-19T10:32:19;3.30;;;1.27;;
27113;SDS011;14648;49.730;8.614;2023-09-19T10:34:46;2.30;;;1.00;;
27113;SDS011;14648;49.730;8.614;2023-09-19T10:37:13;2.20;;;1.07;;
27113;SDS011;14648;49.730;8.614;2023-09-19T10:39:45;0.90;;;0.90;;
27113;SDS011;14648;49.730;8.614;2023-09-19T10:42:14;3.77;;;1.20;;
27113;SDS011;14648;49.730;8.614;2023-09-19T10:44:45;1.17;;;0.87;;
27113;SDS011;14648;49.730;8.614;2023-09-19T10:47:14;14.53;;;1.00;;
27113;SDS011;14648;49.730;8.614;2023-09-19T10:49:44;2.30;;;0.90;;
27113;SDS011;14648;49.730;8.614;2023-09-19T10:52:14;4.87;;;0.90;;
27113;SDS011;14648;49.730;8.614;2023-09-19T10:54:46;0.70;;;0.60;;
27113;SDS011;14648;49.730;8.614;2023-09-19T10:57:25;1.20;;;1.10;;
27113;SDS011;14648;49.730;8.614;2023-09-19T11:00:06;4.00;;;0.93;;
27113;SDS011;14648;49.730;8.614;2023-09-19T11:11:47;2.80;;;0.90;;
27113;SDS011;14648;49.730;8.614;2023-09-19T11:30:49;0.80;;;0.77;;
27113;SDS011;14648;49.730;8.614;2023-09-19T11:33:20;1.30;;;0.80;;
27113;SDS011;14648;49.730;8.614;2023-09-19T11:35:58;3.60;;;0.93;;
27113;SDS011;14648;49.730;8.614;2023-09-19T11:46:54;0.77;;;0.67;;
27113;SDS011;14648;49.730;8.614;2023-09-19T11:49:28;1.57;;;0.90;;
27113;SDS011;14648;49.730;8.614;2023-09-19T11:51:57;0.93;;;0.50;;
27113;SDS011;14648;49.730;8.614;2023-09-19T11:54:30;1.23;;;0.70;;
27113;SDS011;14648;49.730;8.614;2023-09-19T11:56:58;0.70;;;0.70;;
27113;SDS011;14648;49.730;8.614;2023-09-19T12:02:06;1.47;;;0.90;;
27113;SDS011;14648;49.730;8.614;2023-09-19T12:07:03;1.10;;;0.93;;
27113;SDS011;14648;49.730;8.614;2023-09-19T12:09:40;1.57;;;1.20;;
27113;SDS011;14648;49.730;8.614;2023-09-19T12:12:09;1.37;;;0.77;;
27113;SDS011;14648;49.730;8.614;2023-09-19T12:14:49;4.03;;;1.00;;
27113;SDS011;14648;49.730;8.614;2023-09-19T12:17:18;0.70;;;0.70;;
27113;SDS011;14648;49.730;8.614;2023-09-19T12:19:51;0.90;;;0.90;;
27113;SDS011;14648;49.730;8.614;2023-09-19T12:22:20;1.87;;;0.60;;
27113;SDS011;14648;49.730;8.614;2023-09-19T12:24:46;2.43;;;0.83;;
27113;SDS011;14648;49.730;8.614;2023-09-19T12:27:13;1.77;;;0.80;;
27113;SDS011;14648;49.730;8.614;2023-09-19T12:29:46;1.10;;;0.87;;
27113;SDS011;14648;49.730;8.614;2023-09-19T12:32:19;1.27;;;0.87;;
27113;SDS011;14648;49.730;8.614;2023-09-19T12:35:00;1.67;;;0.70;;
27113;SDS011;14648;49.730;8.614;2023-09-19T12:37:32;1.13;;;0.80;;
27113;SDS011;14648;49.730;8.614;2023-09-19T12:40:05;2.17;;;1.37;;
27113;SDS011;14648;49.730;8.614;2023-09-19T12:42:45;2.90;;;1.00;;
27113;SDS011;14648;49.730;8.614;2023-09-19T12:45:13;0.80;;;0.77;;
27113;SDS011;14648;49.730;8.614;2023-09-19T12:53:34;1.10;;;0.73;;
27113;SDS011;14648;49.730;8.614;2023-09-19T12:56:09;2.30;;;0.63;;
27113;SDS011;14648;49.730;8.614;2023-09-19T12:58:51;2.30;;;0.70;;
27113;SDS011;14648;49.730;8.614;2023-09-19T13:01:27;8.90;;;0.90;;
27113;SDS011;14648;49.730;8.614;2023-09-19T13:06:54;0.70;;;0.70;;
27113;SDS011;14648;49.730;8.614;2023-09-19T13:09:25;0.70;;;0.50;;
27113;SDS011;14648;49.730;8.614;2023-09-19T13:12:03;0.60;;;0.60;;
27113;SDS011;14648;49.730;8.614;2023-09-19T13:14:31;1.57;;;0.53;;
27113;SDS011;14648;49.730;8.614;2023-09-19T13:19:47;2.50;;;0.87;;
27113;SDS011;14648;49.730;8.614;2023-09-19T13:25:15;0.80;;;0.70;;
27113;SDS011;14648;49.730;8.614;2023-09-19T13:27:43;1.80;;;0.63;;
27113;SDS011;14648;49.730;8.614;2023-09-19T13:30:21;0.90;;;0.80;;
27113;SDS011;14648;49.730;8.614;2023-09-19T13:32:50;1.03;;;0.70;;
27113;SDS011;14648;49.730;8.614;2023-09-19T13:35:17;3.63;;;0.70;;
27113;SDS011;14648;49.730;8.614;2023-09-19T13:37:43;1.10;;;0.70;;
27113;SDS011;14648;49.730;8.614;2023-09-19T13:40:14;0.77;;;0.53;;
27113;SDS011;14648;49.730;8.614;2023-09-19T13:42:41;0.60;;;0.60;;
27113;SDS011;14648;49.730;8.614;2023-09-19T13:45:07;0.80;;;0.70;;
27113;SDS011;14648;49.730;8.614;2023-09-19T13:47:36;2.90;;;0.80;;
27113;SDS011;14648;49.730;8.614;2023-09-19T13:50:03;0.87;;;0.63;;
27113;SDS011;14648;49.730;8.614;2023-09-19T13:52:30;5.77;;;0.70;;
27113;SDS011;14648;49.730;8.614;2023-09-19T13:54:57;1.87;;;0.70;;
27113;SDS011;14648;49.730;8.614;2023-09-19T13:57:24;2.03;;;0.70;;
27113;SDS011;14648;49.730;8.614;2023-09-19T13:59:54;1.57;;;0.67;;
27113;SDS011;14648;49.730;8.614;2023-09-19T14:02:20;0.63;;;0.50;;
27113;SDS011;14648;49.730;8.614;2023-09-19T14:04:49;0.70;;;0.60;;
27113;SDS011;14648;49.730;8.614;2023-09-19T14:07:16;3.07;;;0.50;;
27113;SDS011;14648;49.730;8.614;2023-09-19T14:09:43;1.10;;;0.80;;
27113;SDS011;14648;49.730;8.614;2023-09-19T14:12:10;1.67;;;0.80;;
27113;SDS011;14648;49.730;8.614;2023-09-19T14:14:36;1.67;;;0.80;;
27113;SDS011;14648;49.730;8.614;2023-09-19T14:17:02;1.27;;;1.00;;
27113;SDS011;14648;49.730;8.614;2023-09-19T14:19:32;1.00;;;0.57;;
27113;SDS011;14648;49.730;8.614;2023-09-19T14:21:58;2.80;;;0.77;;
27113;SDS011;14648;49.730;8.614;2023-09-19T14:24:25;2.00;;;0.90;;
27113;SDS011;14648;49.730;8.614;2023-09-19T14:26:51;3.17;;;0.60;;
27113;SDS011;14648;49.730;8.614;2023-09-19T14:29:17;0.80;;;0.60;;
27113;SDS011;14648;49.730;8.614;2023-09-19T14:31:42;0.50;;;0.50;;
27113;SDS011;14648;49.730;8.614;2023-09-19T14:34:08;1.87;;;0.57;;
27113;SDS011;14648;49.730;8.614;2023-09-19T14:36:37;1.63;;;0.70;;
27113;SDS011;14648;49.730;8.614;2023-09-19T14:39:03;0.97;;;0.70;;
27113;SDS011;14648;49.730;8.614;2023-09-19T14:41:30;0.70;;;0.60;;
27113;SDS011;14648;49.730;8.614;2023-09-19T14:43:56;2.97;;;0.73;;
27113;SDS011;14648;49.730;8.614;2023-09-19T14:46:22;1.27;;;0.63;;
27113;SDS011;14648;49.730;8.614;2023-09-19T14:48:50;1.07;;;0.60;;
27113;SDS011;14648;49.730;8.614;2023-09-19T14:51:17;2.20;;;0.70;;
27113;SDS011;14648;49.730;8.614;2023-09-19T14:53:44;1.57;;;0.70;;
27113;SDS011;14648;49.730;8.614;2023-09-19T14:56:11;3.13;;;0.80;;
27113;SDS011;14648;49.730;8.614;2023-09-19T14:58:38;3.43;;;0.60;;
27113;SDS011;14648;49.730;8.614;2023-09-19T15:01:05;1.33;;;0.90;;
27113;SDS011;14648;49.730;8.614;2023-09-19T15:03:35;0.70;;;0.70;;
27113;SDS011;14648;49.730;8.614;2023-09-19T15:06:09;1.97;;;0.90;;
27113;SDS011;14648;49.730;8.614;2023-09-19T15:08:39;0.70;;;0.63;;
27113;SDS011;14648;49.730;8.614;2023-09-19T15:11:11;0.80;;;0.60;;
27113;SDS011;14648;49.730;8.614;2023-09-19T15:13:38;1.00;;;0.80;;
27113;SDS011;14648;49.730;8.614;2023-09-19T15:16:04;3.00;;;0.60;;
27113;SDS011;14648;49.730;8.614;2023-09-19T15:18:36;2.30;;;0.70;;
27113;SDS011;14648;49.730;8.614;2023-09-19T15:21:03;0.77;;;0.60;;
27113;SDS011;14648;49.730;8.614;2023-09-19T15:23:30;0.70;;;0.70;;
27113;SDS011;14648;49.730;8.614;2023-09-19T15:26:06;0.90;;;0.60;;
27113;SDS011;14648;49.730;8.614;2023-09-19T15:28:36;0.80;;;0.70;;
27113;SDS011;14648;49.730;8.614;2023-09-19T15:31:03;0.60;;;0.60;;
27113;SDS011;14648;49.730;8.614;2023-09-19T15:33:34;2.20;;;0.80;;
27113;SDS011;14648;49.730;8.614;2023-09-19T15:38:31;1.77;;;0.77;;
27113;SDS011;14648;49.730;8.614;2023-09-19T15:41:22;0.90;;;0.70;;
27113;SDS011;14648;49.730;8.614;2023-09-19T15:43:48;1.57;;;0.70;;
27113;SDS011;14648;49.730;8.614;2023-09-19T15:46:14;1.30;;;0.63;;
27113;SDS011;14648;49.730;8.614;2023-09-19T15:48:40;0.60;;;0.60;;
27113;SDS011;14648;49.730;8.614;2023-09-19T15:51:07;0.70;;;0.67;;
27113;SDS011;14648;49.730;8.614;2023-09-19T15:53:41;1.20;;;0.90;;
27113;SDS011;14648;49.730;8.614;2023-09-19T15:56:10;1.23;;;0.60;;
27113;SDS011;14648;49.730;8.614;2023-09-19T15:58:37;1.10;;;0.70;;
27113;SDS011;14648;49.730;8.614;2023-09-19T16:01:06;1.00;;;0.80;;
27113;SDS011;14648;49.730;8.614;2023-09-19T16:03:46;1.67;;;0.60;;
27113;SDS011;14648;49.730;8.614;2023-09-19T16:06:19;0.90;;;0.70;;
27113;SDS011;14648;49.730;8.614;2023-09-19T16:08:48;3.93;;;0.77;;
27113;SDS011;14648;49.730;8.614;2023-09-19T16:11:16;0.80;;;0.60;;
27113;SDS011;14648;49.730;8.614;2023-09-19T16:13:44;0.60;;;0.50;;
27113;SDS011;14648;49.730;8.614;2023-09-19T16:16:12;0.90;;;0.70;;
27113;SDS011;14648;49.730;8.614;2023-09-19T16:18:47;0.70;;;0.60;;
27113;SDS011;14648;49.730;8.614;2023-09-19T16:21:14;0.87;;;0.60;;
27113;SDS011;14648;49.730;8.614;2023-09-19T16:23:44;0.70;;;0.60;;